Time;durP1;ratioP1;P1;durP2;ratioP2;P2;SDS_P1;SDS_P2;PMS_P1;PMS_P2;Temp;Humidity;BMP_temperature;BMP_pressure;BME280_temperature;BME280_humidity;BME280_pressure;Samples;Min_cycle;Max_cycle;Signal;HPM_P1;HPM_P2
2024/03/20 00:00:46;;;;;;;64.70;30.10;;;;;;;-1.54;89.20;99729.83;273538;1269;22552;-87
2024/03/20 00:07:57;;;;;;;77.70;34.60;;;;;;;-1.60;89.27;99723.05;273544;1276;22534;-86
2024/03/20 00:14:55;;;;;;;71.00;34.10;;;;;;;-1.70;89.27;99713.07;273763;1269;22233;-84
2024/03/20 00:21:27;;;;;;;86.20;37.50;;;;;;;-1.75;89.91;99705.86;273409;1269;22246;-85
2024/03/20 00:35:28;;;;;;;66.00;33.90;;;;;;;-1.88;90.02;99695.84;273543;1277;22291;-85
2024/03/20 00:42:21;;;;;;;71.40;34.00;;;;;;;-1.94;90.53;99701.33;265995;1271;10142310;-85
2024/03/20 01:03:56;;;;;;;84.90;39.20;;;;;;;-2.07;90.75;99680.21;273600;1277;22255;-85
2024/03/20 01:10:26;;;;;;;87.40;40.70;;;;;;;-2.17;91.02;99673.83;273319;1277;22284;-85
2024/03/20 01:24:48;;;;;;;76.50;37.30;;;;;;;-2.31;91.61;99666.53;273764;1276;22976;-86
2024/03/20 01:30:53;;;;;;;;;;;;;;;-2.34;91.68;99661.45;273505;1272;22408;-85
2024/03/20 01:37:20;;;;;;;89.70;42.30;;;;;;;-2.37;91.95;99660.77;273426;1277;23542;-85
2024/03/20 01:57:33;;;;;;;92.80;44.10;;;;;;;-2.47;92.31;99666.05;273910;1270;22257;-86
2024/03/20 02:04:26;;;;;;;87.80;43.20;;;;;;;-2.49;92.57;99663.02;273724;1259;22967;-87
2024/03/20 02:10:54;;;;;;;76.10;38.60;;;;;;;-2.49;92.41;99661.67;273581;1275;22258;-86
2024/03/20 02:17:20;;;;;;;98.00;45.90;;;;;;;-2.52;92.59;99658.04;273784;1276;22285;-86
2024/03/20 02:24:13;;;;;;;89.60;44.80;;;;;;;-2.54;92.93;99666.48;272316;1269;23629;-86
2024/03/20 02:37:32;;;;;;;95.00;47.60;;;;;;;-2.60;93.16;99667.23;271876;1272;22261;-86
2024/03/20 02:43:54;;;;;;;90.40;44.50;;;;;;;-2.70;93.23;99653.27;273292;1275;22265;-86
2024/03/20 02:50:46;;;;;;;81.60;43.20;;;;;;;-2.77;93.56;99648.43;273178;1279;22290;-86
2024/03/20 03:05:47;;;;;;;85.20;39.30;;;;;;;-2.76;94.24;99643.31;273291;1276;22266;-85
2024/03/20 03:19:33;;;;;;;76.80;34.40;;;;;;;-2.77;94.97;99656.63;273288;1279;23072;-86
2024/03/20 03:25:59;;;;;;;81.50;37.10;;;;;;;-2.75;95.08;99652.75;272821;1272;22343;-86
2024/03/20 03:39:14;;;;;;;85.30;39.80;;;;;;;-2.81;94.87;99662.53;271989;1285;23156;-85
2024/03/20 03:45:41;;;;;;;91.70;41.30;;;;;;;-2.86;94.74;99665.22;270862;1278;23821;-86
2024/03/20 03:51:43;;;;;;;87.80;38.30;;;;;;;-2.97;94.78;99666.10;269120;1278;23394;-84
2024/03/20 03:58:35;;;;;;;85.50;37.20;;;;;;;-3.02;94.84;99666.90;271817;1281;22324;-85
2024/03/20 04:05:32;;;;;;;78.60;37.30;;;;;;;-3.07;95.18;99670.71;272214;1285;22515;-85
2024/03/20 04:11:59;;;;;;;76.10;39.60;;;;;;;-3.12;95.15;99671.31;271573;1278;22944;-85
2024/03/20 04:18:20;;;;;;;87.30;40.50;;;;;;;-3.17;95.28;99667.90;273177;1275;22255;-86
2024/03/20 04:25:12;;;;;;;75.80;36.00;;;;;;;-3.18;95.38;99666.65;273174;1270;22364;-85
2024/03/20 04:31:39;;;;;;;76.30;35.60;;;;;;;-3.19;95.46;99665.10;273217;1272;22208;-85
2024/03/20 04:38:11;;;;;;;;;;;;;;;-3.24;95.30;99664.41;273039;1279;22458;-85
2024/03/20 04:45:06;;;;;;;69.90;34.70;;;;;;;-3.34;95.41;99661.09;273390;1277;22302;-85
2024/03/20 04:51:12;;;;;;;79.30;36.50;;;;;;;-3.39;95.59;99660.02;273151;1273;22401;-86
2024/03/20 05:04:58;;;;;;;79.10;36.90;;;;;;;-3.33;96.42;99664.84;272002;1278;22269;-86
2024/03/20 05:11:25;;;;;;;81.90;39.60;;;;;;;-3.30;96.49;99666.73;271187;1275;22312;-86
2024/03/20 05:17:52;;;;;;;77.60;39.60;;;;;;;-3.29;96.42;99669.40;272505;1274;22266;-87
2024/03/20 05:24:11;;;;;;;98.70;47.40;;;;;;;-3.25;96.80;99674.27;272004;1271;23034;-86
2024/03/20 05:30:38;;;;;;;96.10;46.50;;;;;;;-3.07;97.35;99673.83;270808;1275;23193;-86
2024/03/20 05:52:09;;;;;;;142.90;63.00;;;;;;;-2.08;99.66;99692.55;270633;1270;23572;-85
2024/03/20 05:58:28;;;;;;;143.50;64.20;;;;;;;-1.57;99.99;99692.10;272462;1270;23339;-85
2024/03/20 06:19:27;;;;;;;100.90;49.50;;;;;;;0.00;99.79;99689.07;273251;1270;22269;-84
2024/03/20 06:25:59;;;;;;;91.10;45.70;;;;;;;0.40;99.74;99688.27;273289;1273;22239;-85
2024/03/20 06:32:33;;;;;;;81.40;39.90;;;;;;;0.85;99.40;99692.73;273017;1279;22258;-86
2024/03/20 06:39:32;;;;;;;90.90;43.70;;;;;;;1.34;99.11;99703.52;273491;1278;22255;-85
2024/03/20 06:53:38;;;;;;;67.40;34.00;;;;;;;2.42;97.29;99714.59;273351;1278;22284;-85
2024/03/20 07:00:17;;;;;;;69.70;34.60;;;;;;;2.77;96.74;99713.11;273269;1274;22271;-85
2024/03/20 07:06:45;;;;;;;54.80;28.60;;;;;;;3.03;95.71;99716.00;273100;1272;22308;-85
2024/03/20 07:13:29;;;;;;;54.50;28.30;;;;;;;3.19;94.83;99719.23;273316;1272;22222;-85
2024/03/20 07:19:56;;;;;;;51.30;26.30;;;;;;;3.33;93.54;99705.30;273340;1260;22898;-85
2024/03/20 07:26:03;;;;;;;;;;;;;;;3.58;93.57;99704.25;273311;1278;22454;-86
2024/03/20 07:40:22;;;;;;;52.40;26.90;;;;;;;4.42;91.09;99706.73;273505;1276;22367;-86
2024/03/20 07:46:27;;;;;;;55.30;28.50;;;;;;;4.74;89.86;99704.41;273357;1278;23313;-87
2024/03/20 07:52:54;;;;;;;50.30;27.00;;;;;;;5.11;89.96;99704.17;272779;1270;22256;-87
2024/03/20 07:58:56;;;;;;;51.00;28.50;;;;;;;5.64;89.60;99703.81;272599;1270;22474;-88
2024/03/20 08:04:59;;;;;;;54.50;29.20;;;;;;;6.01;87.73;99703.30;272677;1270;22357;-88
2024/03/20 08:11:02;;;;;;;63.70;32.20;;;;;;;6.39;87.75;99715.11;273193;1273;22248;-87
2024/03/20 08:18:05;;;;;;;62.90;29.80;;;;;;;6.72;86.33;99716.79;273312;1279;22901;-88
2024/03/20 08:39:26;;;;;;;41.90;24.80;;;;;;;7.87;85.01;99697.27;273283;1279;22219;-88
2024/03/20 08:45:35;;;;;;;38.50;22.00;;;;;;;8.08;85.53;99684.88;271951;1270;23036;-89
2024/03/20 08:51:37;;;;;;;50.50;24.40;;;;;;;8.69;84.50;99678.56;269619;1270;22628;-89
2024/03/20 08:57:39;;;;;;;43.40;22.30;;;;;;;9.57;83.22;99671.48;269863;1270;23009;-91
2024/03/20 09:03:41;;;;;;;38.70;20.50;;;;;;;9.90;82.21;99668.20;269493;1270;23765;-89
2024/03/20 09:09:43;;;;;;;39.10;22.10;;;;;;;10.12;80.46;99665.70;269223;1270;23412;-90
2024/03/20 09:15:45;;;;;;;33.60;19.00;;;;;;;10.60;79.06;99664.02;272220;1270;23171;-90
2024/03/20 09:21:47;;;;;;;30.40;19.10;;;;;;;11.75;77.18;99662.59;272568;1270;22406;-90
2024/03/20 09:27:51;;;;;;;32.40;17.40;;;;;;;12.68;74.77;99654.92;272490;1270;22283;-90
2024/03/20 09:33:54;;;;;;;28.00;16.20;;;;;;;13.29;73.93;99647.44;272510;1270;22351;-91
2024/03/20 09:40:21;;;;;;;;;;;;;;;;;;;;;
2024/03/20 09:47:00;;;;;;;;;;;;;;;;;;;;;
2024/03/20 09:53:30;;;;;;;18.90;13.60;;;;;;;14.47;66.53;99633.70;272691;1270;24390;-89
2024/03/20 09:59:51;;;;;;;20.20;13.50;;;;;;;15.28;64.92;99633.19;272491;1270;23647;-89
2024/03/20 10:06:41;;;;;;;16.50;11.30;;;;;;;15.41;64.52;99623.55;272651;1270;22396;-93
2024/03/20 10:12:57;;;;;;;18.20;12.00;;;;;;;15.45;62.43;99616.52;272338;1270;22516;-90
2024/03/20 10:19:07;;;;;;;17.00;10.40;;;;;;;15.90;62.39;99604.33;272634;1270;22660;-90
2024/03/20 10:25:21;;;;;;;15.10;10.60;;;;;;;16.60;59.67;99599.39;272737;1270;23468;-91
2024/03/20 10:31:48;;;;;;;15.30;10.20;;;;;;;16.84;57.49;99591.48;272702;1270;22316;-91
2024/03/20 10:38:10;;;;;;;12.20;9.40;;;;;;;17.25;54.33;99582.39;272429;1270;22566;-89
2024/03/20 10:44:40;;;;;;;14.30;10.50;;;;;;;17.33;51.98;99571.91;271826;1270;22277;-91
2024/03/20 10:50:55;;;;;;;11.90;9.00;;;;;;;17.21;51.43;99566.22;272454;1270;23228;-91
2024/03/20 10:57:24;;;;;;;13.60;9.30;;;;;;;17.53;50.33;99558.12;272184;1270;23916;-91
2024/03/20 11:03:52;;;;;;;12.60;9.50;;;;;;;17.56;49.09;99549.06;271255;1270;25224;-90
2024/03/20 11:10:00;;;;;;;10.80;8.10;;;;;;;17.87;50.40;99542.00;271790;1270;27554;-89
2024/03/20 11:16:43;;;;;;;16.00;9.40;;;;;;;18.16;50.65;99538.30;271204;1270;22275;-91
2024/03/20 11:23:13;;;;;;;14.20;9.00;;;;;;;18.11;47.43;99533.36;271980;1270;22356;-91
2024/03/20 11:29:56;;;;;;;11.30;7.90;;;;;;;18.11;45.44;99527.59;272603;1270;22339;-92
2024/03/20 11:36:23;;;;;;;12.80;8.40;;;;;;;17.93;45.18;99523.18;272607;1270;23254;-90
2024/03/20 11:42:31;;;;;;;16.00;8.50;;;;;;;17.57;43.73;99519.40;272482;1270;22598;-90
2024/03/20 11:48:55;;;;;;;;;;;;;;;;;;;;;
2024/03/20 11:55:14;;;;;;;13.50;7.60;;;;;;;16.55;44.08;99508.60;272267;1270;22581;-91
2024/03/20 12:01:57;;;;;;;14.80;7.70;;;;;;;16.44;43.39;99504.07;272530;1270;22445;-91
2024/03/20 12:08:23;;;;;;;10.40;7.60;;;;;;;16.06;43.15;99502.06;272706;1270;22350;-91
2024/03/20 12:14:39;;;;;;;11.40;9.00;;;;;;;15.91;42.54;99497.37;272538;1270;23097;-91
2024/03/20 12:20:49;;;;;;;;;;;;;;;15.42;41.86;99491.67;272647;1270;22476;-89
2024/03/20 12:27:16;;;;;;;12.80;8.60;;;;;;;15.12;41.93;99487.08;272588;1270;22749;-91
2024/03/20 12:33:31;;;;;;;12.90;8.40;;;;;;;14.80;42.13;99486.87;271442;1270;22936;-91
2024/03/20 12:39:39;;;;;;;13.40;7.50;;;;;;;14.62;41.69;99485.89;266318;1270;7275418;-90
2024/03/20 12:45:46;;;;;;;12.00;8.20;;;;;;;14.52;41.42;99478.86;271860;1270;22409;-90
2024/03/20 12:52:14;;;;;;;11.70;7.80;;;;;;;14.42;41.33;99474.89;272611;1270;22285;-91
2024/03/20 12:58:51;;;;;;;13.50;8.10;;;;;;;14.47;41.34;99469.48;271887;1270;22320;-92
2024/03/20 13:05:56;;;;;;;10.50;7.50;;;;;;;14.40;41.43;99468.90;272738;1270;22399;-91
2024/03/20 13:12:18;;;;;;;12.90;8.60;;;;;;;14.52;41.04;99463.67;272569;1270;23278;-89
2024/03/20 13:18:53;;;;;;;18.20;9.40;;;;;;;14.35;40.85;99457.86;271385;1271;22641;-89
2024/03/20 13:25:05;;;;;;;14.80;8.90;;;;;;;14.09;41.17;99461.98;271696;1270;24054;-89
2024/03/20 13:31:16;;;;;;;13.50;9.10;;;;;;;13.86;41.35;99457.63;271744;1262;22588;-91
2024/03/20 13:37:31;;;;;;;20.00;10.90;;;;;;;13.81;41.74;99452.25;272441;1270;22825;-91
2024/03/20 13:43:39;;;;;;;15.20;10.30;;;;;;;13.74;41.93;99448.13;272462;1270;23042;-91
2024/03/20 13:50:05;;;;;;;12.80;8.40;;;;;;;13.79;42.41;99444.93;271827;1270;22304;-90
2024/03/20 13:56:23;;;;;;;13.90;8.90;;;;;;;13.94;42.67;99436.52;272829;1270;22332;-90
2024/03/20 14:02:36;;;;;;;20.40;12.60;;;;;;;14.00;42.55;99434.11;272680;1271;22330;-90
2024/03/20 14:09:17;;;;;;;14.70;10.50;;;;;;;14.03;42.09;99434.27;272176;1270;22556;-91
2024/03/20 14:15:36;;;;;;;13.90;9.30;;;;;;;13.99;41.93;99426.08;271541;1270;22301;-92
2024/03/20 14:22:02;;;;;;;15.00;10.40;;;;;;;14.01;41.93;99429.95;271463;1270;22503;-91
2024/03/20 14:28:23;;;;;;;18.80;10.20;;;;;;;14.12;42.34;99427.86;272505;1270;22300;-92
2024/03/20 14:34:33;;;;;;;14.80;9.60;;;;;;;13.98;42.03;99422.63;272648;1270;23250;-91
2024/03/20 14:41:23;;;;;;;20.80;9.30;;;;;;;13.72;41.70;99415.19;272372;1262;23804;-91
2024/03/20 14:47:33;;;;;;;14.80;10.50;;;;;;;13.63;42.28;99412.77;272444;1270;23508;-91
2024/03/20 14:54:31;;;;;;;19.90;11.40;;;;;;;13.55;42.23;99408.80;271387;1270;22400;-90
2024/03/20 15:00:51;;;;;;;17.10;12.10;;;;;;;13.51;42.41;99409.02;272630;1270;23319;-91
2024/03/20 15:07:26;;;;;;;19.80;11.80;;;;;;;13.40;42.38;99406.73;272328;1270;22389;-90
2024/03/20 15:13:54;;;;;;;17.20;11.60;;;;;;;13.31;42.81;99403.70;272393;1270;24306;-90
2024/03/20 15:20:05;;;;;;;19.50;11.60;;;;;;;13.20;43.25;99396.24;272571;1270;22300;-90
2024/03/20 15:26:15;;;;;;;20.50;12.30;;;;;;;13.07;42.81;99389.71;272099;1267;25238;-91
2024/03/20 15:32:36;;;;;;;16.80;10.80;;;;;;;12.87;43.60;99396.67;270994;1270;23949;-91
2024/03/20 15:38:57;;;;;;;15.70;10.10;;;;;;;12.63;44.40;99396.13;271770;1270;22299;-90
2024/03/20 15:45:16;;;;;;;17.30;9.70;;;;;;;12.46;44.44;99398.56;272635;1270;23126;-90
2024/03/20 15:51:39;;;;;;;22.80;10.90;;;;;;;12.29;45.02;99400.81;272322;1270;23252;-92
2024/03/20 15:57:55;;;;;;;19.00;9.80;;;;;;;12.10;45.32;99400.06;271807;1270;22186;-91
2024/03/20 16:04:35;;;;;;;;;;;;;;;11.91;46.08;99397.73;271582;1272;22505;-91
2024/03/20 16:10:55;;;;;;;17.00;10.40;;;;;;;11.65;46.77;99397.38;271700;1270;22404;-92
2024/03/20 16:16:58;;;;;;;16.40;9.50;;;;;;;11.44;47.27;99401.61;272320;1270;22413;-90
2024/03/20 16:23:16;;;;;;;19.30;10.00;;;;;;;11.34;47.43;99406.10;272519;1270;23583;-90
2024/03/20 16:29:36;;;;;;;17.60;9.90;;;;;;;11.25;47.63;99406.27;272432;1271;22848;-90
2024/03/20 16:35:50;;;;;;;22.70;12.20;;;;;;;11.10;47.89;99411.67;272506;1270;22462;-90
2024/03/20 16:42:15;;;;;;;30.60;15.50;;;;;;;10.82;48.04;99420.16;272181;1270;22248;-90
2024/03/20 16:48:29;;;;;;;22.80;12.10;;;;;;;10.56;49.08;99413.84;272230;1270;23354;-91
2024/03/20 16:54:52;;;;;;;26.20;10.40;;;;;;;10.39;50.17;99415.65;271990;1270;22630;-90
2024/03/20 17:01:03;;;;;;;25.70;15.20;;;;;;;10.22;50.93;99423.98;272332;1270;22554;-91
2024/03/20 17:07:09;;;;;;;22.90;13.40;;;;;;;10.01;50.84;99426.20;272132;1270;22840;-91
2024/03/20 17:13:11;;;;;;;27.90;14.90;;;;;;;9.82;51.61;99428.48;257241;1270;10001755;-91
2024/03/20 17:19:13;;;;;;;37.00;17.00;;;;;;;9.63;52.00;99431.83;272430;1270;22360;-91
2024/03/20 17:25:20;;;;;;;34.30;16.30;;;;;;;9.46;52.94;99436.52;271475;1270;22931;-91
2024/03/20 17:31:29;;;;;;;38.10;17.90;;;;;;;9.32;53.43;99435.58;272302;1270;22402;-91
2024/03/20 17:37:34;;;;;;;29.80;15.70;;;;;;;9.12;54.10;99431.92;272374;1270;22897;-92
2024/03/20 17:43:36;;;;;;;33.80;17.10;;;;;;;8.93;54.53;99429.52;272367;1270;22705;-92
2024/03/20 17:49:39;;;;;;;41.20;18.80;;;;;;;8.80;55.09;99435.64;272313;1270;22352;-91
2024/03/20 17:55:43;;;;;;;40.80;20.90;;;;;;;8.69;55.50;99442.45;272348;1270;22432;-92
2024/03/20 18:01:50;;;;;;;40.20;20.30;;;;;;;8.56;56.10;99450.15;272466;1270;23454;-91
2024/03/20 18:07:52;;;;;;;38.00;21.60;;;;;;;8.42;56.78;99455.23;272244;1270;23015;-92
2024/03/20 18:13:55;;;;;;;49.00;24.50;;;;;;;8.32;57.49;99456.75;272188;1270;23783;-90
2024/03/20 18:19:56;;;;;;;43.10;24.00;;;;;;;8.25;57.94;99458.76;272423;1270;23145;-91
2024/03/20 18:26:01;;;;;;;63.50;31.60;;;;;;;8.17;58.47;99456.15;272643;1271;22299;-90
2024/03/20 18:32:03;;;;;;;73.20;37.60;;;;;;;8.08;58.89;99462.45;272369;1265;22308;-91
2024/03/20 18:38:06;;;;;;;87.90;44.10;;;;;;;8.02;59.35;99459.41;272441;1270;22335;-90
2024/03/20 18:44:09;;;;;;;71.10;33.10;;;;;;;7.95;60.11;99458.64;272322;1270;22222;-91
2024/03/20 18:50:14;;;;;;;58.30;29.10;;;;;;;7.89;60.79;99457.70;272217;1270;22364;-90
2024/03/20 18:56:17;;;;;;;59.50;27.90;;;;;;;7.84;61.28;99457.41;272239;1265;22263;-90
2024/03/20 19:02:28;;;;;;;57.20;28.10;;;;;;;7.64;61.16;99455.00;272231;1271;22334;-90
2024/03/20 19:08:31;;;;;;;58.60;28.30;;;;;;;7.46;62.17;99459.61;272345;1272;23580;-89
2024/03/20 19:14:38;;;;;;;59.70;28.80;;;;;;;7.35;62.66;99460.66;272400;1271;22374;-90
2024/03/20 19:20:45;;;;;;;59.70;29.20;;;;;;;7.25;62.86;99462.68;272290;1268;23445;-90
2024/03/20 19:26:47;;;;;;;75.70;30.70;;;;;;;7.12;63.27;99462.81;272203;1272;22352;-90
2024/03/20 19:32:50;;;;;;;60.70;29.10;;;;;;;7.01;64.08;99461.90;272229;1270;23699;-89
2024/03/20 19:38:52;;;;;;;63.60;31.70;;;;;;;6.93;64.62;99466.06;272423;1270;23460;-91
2024/03/20 19:44:55;;;;;;;57.60;30.90;;;;;;;6.79;64.85;99474.85;272445;1270;22397;-91
2024/03/20 19:51:09;;;;;;;61.30;31.80;;;;;;;6.69;65.14;99481.37;272371;1270;23918;-91
2024/03/20 19:57:15;;;;;;;59.80;32.60;;;;;;;6.65;65.86;99486.59;272153;1270;22393;-89
2024/03/20 20:03:17;;;;;;;63.90;31.80;;;;;;;6.61;66.20;99487.12;272260;1270;22249;-89
2024/03/20 20:09:22;;;;;;;68.30;35.30;;;;;;;6.56;66.62;99483.30;272341;1272;22911;-90
2024/03/20 20:15:24;;;;;;;60.80;34.10;;;;;;;6.50;67.18;99481.95;271762;1270;22334;-90
2024/03/20 20:21:26;;;;;;;66.10;35.80;;;;;;;6.39;67.57;99481.11;272395;1270;22259;-90
2024/03/20 20:27:28;;;;;;;68.70;37.10;;;;;;;6.23;68.14;99478.83;272517;1270;22556;-90
2024/03/20 20:33:32;;;;;;;71.00;36.60;;;;;;;6.06;68.84;99482.07;272433;1270;23374;-91
2024/03/20 20:39:34;;;;;;;71.20;37.00;;;;;;;5.89;69.30;99480.67;272342;1270;22463;-90
2024/03/20 20:45:42;;;;;;;58.00;32.20;;;;;;;5.79;69.60;99482.09;272518;1270;22258;-90
2024/03/20 20:51:44;;;;;;;60.10;32.10;;;;;;;5.72;71.79;99489.85;272465;1270;23142;-89
2024/03/20 20:57:48;;;;;;;75.40;40.90;;;;;;;5.61;71.87;99489.59;272379;1270;22503;-90
2024/03/20 21:23:05;;;;;;;81.50;43.20;;;;;;;4.82;73.13;99485.95;272392;1270;23539;-89
2024/03/20 21:29:14;;;;;;;77.70;43.00;;;;;;;4.70;73.82;99489.41;272512;1270;23505;-91
2024/03/20 21:35:16;;;;;;;74.00;41.10;;;;;;;4.59;74.25;99484.92;272533;1270;22385;-90
2024/03/20 21:41:20;;;;;;;72.60;37.40;;;;;;;4.42;74.67;99485.98;272359;1270;23410;-89
2024/03/20 21:47:23;;;;;;;64.30;35.60;;;;;;;4.33;75.34;99485.30;272424;1270;22372;-91
2024/03/20 21:53:24;;;;;;;75.00;39.20;;;;;;;4.24;75.63;99482.95;272400;1270;23469;-89
2024/03/20 21:59:26;;;;;;;77.70;39.30;;;;;;;4.06;75.99;99480.23;272518;1270;24048;-90
2024/03/20 22:05:28;;;;;;;65.80;37.20;;;;;;;3.89;76.45;99482.31;272560;1270;22345;-90
2024/03/20 22:11:30;;;;;;;66.60;34.90;;;;;;;3.76;76.86;99478.30;272492;1270;23163;-89
2024/03/20 22:17:34;;;;;;;65.30;36.00;;;;;;;3.70;77.82;99474.40;271767;1268;23791;-89
2024/03/20 22:23:36;;;;;;;74.30;38.10;;;;;;;3.62;78.21;99470.77;270434;1270;23436;-87
2024/03/20 22:29:37;;;;;;;72.10;37.80;;;;;;;3.45;78.34;99471.68;270086;1270;22427;-88
2024/03/20 22:35:39;;;;;;;69.30;36.30;;;;;;;3.37;78.93;99474.25;272481;1270;23199;-89
2024/03/20 22:41:43;;;;;;;77.70;39.40;;;;;;;3.28;79.33;99475.54;272449;1270;22405;-88
2024/03/20 22:47:48;;;;;;;75.00;40.80;;;;;;;3.23;79.81;99478.11;269672;1270;22552;-88
2024/03/20 22:53:50;;;;;;;83.60;44.00;;;;;;;3.13;80.14;99479.00;269926;1270;22759;-87
2024/03/20 22:59:52;;;;;;;76.40;42.50;;;;;;;2.92;80.40;99477.09;270145;1270;22657;-88
2024/03/20 23:05:55;;;;;;;81.20;42.90;;;;;;;2.77;81.13;99479.29;270327;1270;22489;-88
2024/03/20 23:11:57;;;;;;;89.50;47.30;;;;;;;2.64;81.27;99479.48;272141;1270;22561;-88
2024/03/20 23:18:05;;;;;;;84.10;44.30;;;;;;;2.52;81.57;99478.17;272588;1270;22413;-89
2024/03/20 23:24:07;;;;;;;87.70;43.30;;;;;;;2.49;82.19;99473.37;272510;1270;22494;-90
2024/03/20 23:30:13;;;;;;;87.90;46.60;;;;;;;2.41;82.74;99468.75;272630;1270;22455;-89
2024/03/20 23:36:16;;;;;;;85.20;43.20;;;;;;;2.31;83.01;99467.02;272396;1270;22344;-89
2024/03/20 23:42:18;;;;;;;72.20;38.80;;;;;;;2.22;83.55;99465.53;272471;1270;24650;-89
2024/03/20 23:48:20;;;;;;;85.70;44.30;;;;;;;2.17;83.85;99469.77;272627;1270;22262;-88
2024/03/20 23:54:21;;;;;;;88.90;47.00;;;;;;;2.06;83.97;99471.17;272613;1270;22377;-88
